Floral, Canada
Current Conditions -  °F | °C
As of 1:00 AM on Thursday 18 Dec 2014 (Local Time) from CYXE Reporting Station
Overcast Overcast  
Wind Chill:   Ceiling: 500
Heat Index: 19°   Visibility: 15mi
Dew Point: 18°   Wind: 10mph
Humidity: 93%   Direction: 170°S
Pressure: 29.97"   Gusts: NA
Location:  52.07°N, 106.47°W
Report Text: CYXE 180700Z 17009KT 15SM OVC005 M07/M08 A2997 RMK ST8 SLP184
Loading
Personal Weather Stations






























Interactive Weather Map New forecast layout! Learn more

10-Day Weather Forecast

Advertisements
Track Severe Weather on mobile